createdAt,value
2017-11-15T00:01:18.312Z,77.42
2017-11-15T00:03:50.484Z,77.51
2017-11-15T00:06:19.617Z,78.13
2017-11-15T00:08:48.475Z,76.83
2017-11-15T00:11:18.073Z,76.15
2017-11-15T00:13:47.264Z,75.87
2017-11-15T00:16:16.070Z,76.51
2017-11-15T00:18:45.659Z,77.08
2017-11-15T00:21:14.669Z,78.12
2017-11-15T00:23:44.617Z,77.57
2017-11-15T00:26:13.463Z,78.27
2017-11-15T00:28:42.235Z,77.53
2017-11-15T00:31:11.396Z,77.09
2017-11-15T00:33:40.295Z,77.98
2017-11-15T00:36:09.104Z,77.51
2017-11-15T00:38:38.029Z,76.72
2017-11-15T00:41:07.595Z,77.12
2017-11-15T00:43:36.863Z,76.78
2017-11-15T00:46:05.675Z,77.23
2017-11-15T00:51:18.741Z,77.15
2017-11-15T00:53:48.579Z,77.26
2017-11-15T00:56:17.384Z,76.03
2017-11-15T00:58:46.232Z,76.36
2017-11-15T01:01:16.403Z,75.70
2017-11-15T01:03:45.196Z,75.71
2017-11-15T01:06:14.066Z,76.79
2017-11-15T01:08:42.847Z,75.60
2017-11-15T01:11:11.676Z,73.55
2017-11-15T01:13:40.868Z,72.98
2017-11-15T01:16:09.651Z,73.83
2017-11-15T01:18:38.712Z,75.05
2017-11-15T01:21:08.017Z,74.10
2017-11-15T01:23:36.836Z,73.42
2017-11-15T01:26:05.620Z,72.97
2017-11-15T01:28:34.438Z,73.51
2017-11-15T01:31:04.109Z,74.87
2017-11-15T01:33:33.279Z,72.79
2017-11-15T01:36:02.148Z,72.43
2017-11-15T01:38:31.187Z,71.94
2017-11-15T01:41:00.060Z,73.06
2017-11-15T01:43:29.413Z,73.42
2017-11-15T01:45:58.287Z,74.55
2017-11-15T01:48:27.256Z,75.37
2017-11-15T01:50:56.052Z,76.25
2017-11-15T01:53:24.939Z,75.22
2017-11-15T01:55:53.855Z,75.13
2017-11-15T01:58:23.579Z,75.62
2017-11-15T02:01:09.597Z,76.04
2017-11-15T02:03:38.419Z,75.31
2017-11-15T02:06:07.259Z,76.67
2017-11-15T02:08:36.111Z,75.70
2017-11-15T02:11:05.711Z,74.19
2017-11-15T02:13:34.595Z,75.37
2017-11-15T02:16:05.665Z,75.71
2017-11-15T02:18:34.496Z,75.31
2017-11-15T02:21:03.767Z,75.56
2017-11-15T02:23:32.716Z,74.41
2017-11-15T02:26:01.776Z,74.37
2017-11-15T02:28:30.858Z,74.93
2017-11-15T02:30:59.894Z,73.77
2017-11-15T02:33:30.119Z,72.47
2017-11-15T02:35:58.956Z,71.86
2017-11-15T02:38:27.923Z,72.70
2017-11-15T02:40:56.964Z,71.54
2017-11-15T02:43:25.875Z,71.78
2017-11-15T02:45:54.809Z,71.26
2017-11-15T02:48:23.778Z,71.57
2017-11-15T02:50:53.450Z,72.02
2017-11-15T02:53:22.408Z,72.62
2017-11-15T02:55:51.295Z,72.33
2017-11-15T02:58:20.164Z,71.56
2017-11-15T03:00:49.174Z,71.83
2017-11-15T03:03:18.051Z,71.19
2017-11-15T03:05:46.863Z,71.58
